Terminal Aerodrome Forecast
Issued by NWS Paducah, KY

Home | Current Version | Previous Version | Graphics & Text | Print | Product List | Glossary On
Versions: 1 2 3 4 5 6 7 8 9 10 11 12 13 14 15 16 17 18 19 20 21 22 23 24
632
FTUS43 KPAH 191043 AAD
TAFEVV
TAF AMD
KEVV 191043Z 1911/2006 VRB04KT P6SM -TSRA BKN025CB
      TEMPO 1911/1913 3SM TSRA BKN015CB
     FM191300 00000KT 6SM BR SCT045 BKN120
     FM191500 19004KT P6SM SCT030=

USA.gov is the U.S. government's official web portal to all federal, state and local government web resources and services.